sensor_id;sensor_type;location;lat;lon;timestamp;P1;durP1;ratioP1;P2;durP2;ratioP2
60472;SDS011;46318;52.716;6.444;2023-04-25T00:00:27;19.65;;;6.28;;
60472;SDS011;46318;52.716;6.444;2023-04-25T00:02:53;21.15;;;6.50;;
60472;SDS011;46318;52.716;6.444;2023-04-25T00:05:21;17.10;;;6.15;;
60472;SDS011;46318;52.716;6.444;2023-04-25T00:07:51;17.40;;;5.97;;
60472;SDS011;46318;52.716;6.444;2023-04-25T00:10:18;15.80;;;5.85;;
60472;SDS011;46318;52.716;6.444;2023-04-25T00:12:45;21.10;;;6.35;;
60472;SDS011;46318;52.716;6.444;2023-04-25T00:15:11;18.65;;;6.72;;
60472;SDS011;46318;52.716;6.444;2023-04-25T00:17:37;18.73;;;6.18;;
60472;SDS011;46318;52.716;6.444;2023-04-25T00:20:03;20.00;;;6.10;;
60472;SDS011;46318;52.716;6.444;2023-04-25T00:22:31;19.20;;;6.55;;
60472;SDS011;46318;52.716;6.444;2023-04-25T00:24:59;17.33;;;6.07;;
60472;SDS011;46318;52.716;6.444;2023-04-25T00:27:25;21.27;;;5.70;;
60472;SDS011;46318;52.716;6.444;2023-04-25T00:29:51;19.30;;;5.53;;
60472;SDS011;46318;52.716;6.444;2023-04-25T00:32:17;15.70;;;5.97;;
60472;SDS011;46318;52.716;6.444;2023-04-25T00:34:43;14.02;;;5.70;;
60472;SDS011;46318;52.716;6.444;2023-04-25T00:37:09;26.23;;;6.25;;
60472;SDS011;46318;52.716;6.444;2023-04-25T00:39:35;20.67;;;5.82;;
60472;SDS011;46318;52.716;6.444;2023-04-25T00:42:01;19.40;;;6.20;;
60472;SDS011;46318;52.716;6.444;2023-04-25T00:44:29;15.05;;;5.93;;
60472;SDS011;46318;52.716;6.444;2023-04-25T00:46:57;15.73;;;6.30;;
60472;SDS011;46318;52.716;6.444;2023-04-25T00:49:23;19.35;;;6.07;;
60472;SDS011;46318;52.716;6.444;2023-04-25T00:51:49;16.80;;;5.53;;
60472;SDS011;46318;52.716;6.444;2023-04-25T00:54:15;21.80;;;6.03;;
60472;SDS011;46318;52.716;6.444;2023-04-25T00:56:41;16.50;;;5.88;;
60472;SDS011;46318;52.716;6.444;2023-04-25T00:59:08;20.17;;;5.97;;
60472;SDS011;46318;52.716;6.444;2023-04-25T01:01:35;17.85;;;6.40;;
60472;SDS011;46318;52.716;6.444;2023-04-25T01:04:01;22.63;;;6.90;;
60472;SDS011;46318;52.716;6.444;2023-04-25T01:06:27;16.55;;;5.13;;
60472;SDS011;46318;52.716;6.444;2023-04-25T01:08:53;17.23;;;6.35;;
60472;SDS011;46318;52.716;6.444;2023-04-25T01:11:19;20.05;;;5.72;;
60472;SDS011;46318;52.716;6.444;2023-04-25T01:13:45;16.33;;;5.97;;
60472;SDS011;46318;52.716;6.444;2023-04-25T01:16:11;15.82;;;5.72;;
60472;SDS011;46318;52.716;6.444;2023-04-25T01:18:40;21.60;;;7.03;;
60472;SDS011;46318;52.716;6.444;2023-04-25T01:21:08;16.17;;;6.32;;
60472;SDS011;46318;52.716;6.444;2023-04-25T01:23:36;14.75;;;6.28;;
60472;SDS011;46318;52.716;6.444;2023-04-25T01:26:04;18.17;;;5.90;;
60472;SDS011;46318;52.716;6.444;2023-04-25T01:28:34;20.85;;;6.20;;
60472;SDS011;46318;52.716;6.444;2023-04-25T01:31:01;19.80;;;6.53;;
60472;SDS011;46318;52.716;6.444;2023-04-25T01:33:27;11.90;;;6.05;;
60472;SDS011;46318;52.716;6.444;2023-04-25T01:35:53;16.67;;;5.78;;
60472;SDS011;46318;52.716;6.444;2023-04-25T01:38:19;15.95;;;6.05;;
60472;SDS011;46318;52.716;6.444;2023-04-25T01:40:45;15.63;;;6.00;;
60472;SDS011;46318;52.716;6.444;2023-04-25T01:43:14;18.88;;;6.30;;
60472;SDS011;46318;52.716;6.444;2023-04-25T01:45:40;17.27;;;6.40;;
60472;SDS011;46318;52.716;6.444;2023-04-25T01:48:08;15.88;;;6.38;;
60472;SDS011;46318;52.716;6.444;2023-04-25T01:50:38;18.15;;;6.18;;
60472;SDS011;46318;52.716;6.444;2023-04-25T01:53:06;14.02;;;5.18;;
60472;SDS011;46318;52.716;6.444;2023-04-25T01:55:35;19.52;;;6.22;;
60472;SDS011;46318;52.716;6.444;2023-04-25T01:58:02;19.75;;;6.35;;
60472;SDS011;46318;52.716;6.444;2023-04-25T02:00:28;14.55;;;5.43;;
60472;SDS011;46318;52.716;6.444;2023-04-25T02:02:57;18.20;;;5.30;;
60472;SDS011;46318;52.716;6.444;2023-04-25T02:05:23;16.27;;;5.82;;
60472;SDS011;46318;52.716;6.444;2023-04-25T02:07:49;14.40;;;5.82;;
60472;SDS011;46318;52.716;6.444;2023-04-25T02:10:15;12.73;;;4.95;;
60472;SDS011;46318;52.716;6.444;2023-04-25T02:12:41;18.13;;;6.15;;
60472;SDS011;46318;52.716;6.444;2023-04-25T02:15:07;15.10;;;6.10;;
60472;SDS011;46318;52.716;6.444;2023-04-25T02:17:33;18.02;;;5.90;;
60472;SDS011;46318;52.716;6.444;2023-04-25T02:19:59;15.13;;;5.18;;
60472;SDS011;46318;52.716;6.444;2023-04-25T02:22:24;21.73;;;5.90;;
60472;SDS011;46318;52.716;6.444;2023-04-25T02:24:54;14.32;;;6.35;;
60472;SDS011;46318;52.716;6.444;2023-04-25T02:27:20;18.60;;;5.90;;
60472;SDS011;46318;52.716;6.444;2023-04-25T02:29:45;13.80;;;5.28;;
60472;SDS011;46318;52.716;6.444;2023-04-25T02:32:11;13.93;;;5.72;;
60472;SDS011;46318;52.716;6.444;2023-04-25T02:34:37;20.60;;;5.88;;
60472;SDS011;46318;52.716;6.444;2023-04-25T02:37:03;20.88;;;5.55;;
60472;SDS011;46318;52.716;6.444;2023-04-25T02:39:29;21.42;;;5.95;;
60472;SDS011;46318;52.716;6.444;2023-04-25T02:41:54;19.20;;;5.85;;
60472;SDS011;46318;52.716;6.444;2023-04-25T02:44:20;18.00;;;6.20;;
60472;SDS011;46318;52.716;6.444;2023-04-25T02:46:46;15.90;;;5.15;;
60472;SDS011;46318;52.716;6.444;2023-04-25T02:49:12;16.13;;;5.25;;
60472;SDS011;46318;52.716;6.444;2023-04-25T02:51:38;15.73;;;4.38;;
60472;SDS011;46318;52.716;6.444;2023-04-25T02:54:04;14.02;;;4.72;;
60472;SDS011;46318;52.716;6.444;2023-04-25T02:56:31;17.48;;;4.60;;
60472;SDS011;46318;52.716;6.444;2023-04-25T02:58:57;15.38;;;4.28;;
60472;SDS011;46318;52.716;6.444;2023-04-25T03:01:23;13.27;;;3.75;;
60472;SDS011;46318;52.716;6.444;2023-04-25T03:03:49;14.93;;;3.95;;
60472;SDS011;46318;52.716;6.444;2023-04-25T03:06:14;9.27;;;3.65;;
60472;SDS011;46318;52.716;6.444;2023-04-25T03:08:41;16.15;;;4.57;;
60472;SDS011;46318;52.716;6.444;2023-04-25T03:11:06;16.45;;;4.15;;
60472;SDS011;46318;52.716;6.444;2023-04-25T03:13:32;14.02;;;3.85;;
60472;SDS011;46318;52.716;6.444;2023-04-25T03:15:58;15.10;;;4.25;;
60472;SDS011;46318;52.716;6.444;2023-04-25T03:18:24;13.25;;;3.85;;
60472;SDS011;46318;52.716;6.444;2023-04-25T03:20:50;11.02;;;4.25;;
60472;SDS011;46318;52.716;6.444;2023-04-25T03:23:15;10.63;;;3.80;;
60472;SDS011;46318;52.716;6.444;2023-04-25T03:25:41;13.15;;;4.05;;
60472;SDS011;46318;52.716;6.444;2023-04-25T03:28:07;15.57;;;4.05;;
60472;SDS011;46318;52.716;6.444;2023-04-25T03:30:33;12.80;;;4.30;;
60472;SDS011;46318;52.716;6.444;2023-04-25T03:32:59;16.50;;;4.50;;
60472;SDS011;46318;52.716;6.444;2023-04-25T03:35:25;15.85;;;4.82;;
60472;SDS011;46318;52.716;6.444;2023-04-25T03:37:51;10.55;;;4.15;;
60472;SDS011;46318;52.716;6.444;2023-04-25T03:40:17;16.95;;;4.68;;
60472;SDS011;46318;52.716;6.444;2023-04-25T03:42:42;11.93;;;4.10;;
60472;SDS011;46318;52.716;6.444;2023-04-25T03:45:08;13.55;;;4.75;;
60472;SDS011;46318;52.716;6.444;2023-04-25T03:47:34;12.85;;;4.13;;
60472;SDS011;46318;52.716;6.444;2023-04-25T03:50:00;12.65;;;4.30;;
60472;SDS011;46318;52.716;6.444;2023-04-25T03:52:27;10.93;;;3.95;;
60472;SDS011;46318;52.716;6.444;2023-04-25T03:54:53;12.32;;;3.65;;
60472;SDS011;46318;52.716;6.444;2023-04-25T03:57:19;15.32;;;4.65;;
60472;SDS011;46318;52.716;6.444;2023-04-25T03:59:45;10.27;;;4.13;;
60472;SDS011;46318;52.716;6.444;2023-04-25T04:02:11;13.95;;;3.88;;
60472;SDS011;46318;52.716;6.444;2023-04-25T04:04:36;13.35;;;3.58;;
60472;SDS011;46318;52.716;6.444;2023-04-25T04:07:04;13.45;;;4.05;;
60472;SDS011;46318;52.716;6.444;2023-04-25T04:09:30;12.48;;;3.28;;
60472;SDS011;46318;52.716;6.444;2023-04-25T04:11:56;10.18;;;3.50;;
60472;SDS011;46318;52.716;6.444;2023-04-25T04:14:22;12.55;;;3.55;;
60472;SDS011;46318;52.716;6.444;2023-04-25T04:16:48;13.45;;;3.60;;
60472;SDS011;46318;52.716;6.444;2023-04-25T04:19:14;7.40;;;3.15;;
60472;SDS011;46318;52.716;6.444;2023-04-25T04:21:40;9.50;;;3.55;;
60472;SDS011;46318;52.716;6.444;2023-04-25T04:24:05;11.93;;;3.65;;
60472;SDS011;46318;52.716;6.444;2023-04-25T04:26:32;11.10;;;3.75;;
60472;SDS011;46318;52.716;6.444;2023-04-25T04:28:59;13.60;;;3.45;;
60472;SDS011;46318;52.716;6.444;2023-04-25T04:31:25;11.25;;;3.58;;
60472;SDS011;46318;52.716;6.444;2023-04-25T04:33:51;11.18;;;3.22;;
60472;SDS011;46318;52.716;6.444;2023-04-25T04:36:17;10.60;;;2.97;;
60472;SDS011;46318;52.716;6.444;2023-04-25T04:38:47;9.82;;;3.70;;
60472;SDS011;46318;52.716;6.444;2023-04-25T04:41:13;15.02;;;4.07;;
60472;SDS011;46318;52.716;6.444;2023-04-25T04:43:38;12.63;;;3.22;;
60472;SDS011;46318;52.716;6.444;2023-04-25T04:46:05;10.32;;;3.45;;
60472;SDS011;46318;52.716;6.444;2023-04-25T04:48:31;12.25;;;3.55;;
60472;SDS011;46318;52.716;6.444;2023-04-25T04:51:00;8.65;;;2.80;;
60472;SDS011;46318;52.716;6.444;2023-04-25T04:53:26;9.25;;;3.08;;
60472;SDS011;46318;52.716;6.444;2023-04-25T04:55:52;15.85;;;3.53;;
60472;SDS011;46318;52.716;6.444;2023-04-25T04:58:19;7.10;;;2.55;;
60472;SDS011;46318;52.716;6.444;2023-04-25T05:00:45;11.27;;;3.10;;
60472;SDS011;46318;52.716;6.444;2023-04-25T05:03:11;15.00;;;3.15;;
60472;SDS011;46318;52.716;6.444;2023-04-25T05:05:37;10.50;;;2.70;;
60472;SDS011;46318;52.716;6.444;2023-04-25T05:08:05;11.98;;;3.22;;
60472;SDS011;46318;52.716;6.444;2023-04-25T05:10:31;11.15;;;3.05;;
60472;SDS011;46318;52.716;6.444;2023-04-25T05:12:57;9.10;;;2.78;;
60472;SDS011;46318;52.716;6.444;2023-04-25T05:15:23;10.23;;;3.35;;
60472;SDS011;46318;52.716;6.444;2023-04-25T05:17:49;9.25;;;2.80;;
60472;SDS011;46318;52.716;6.444;2023-04-25T05:20:15;9.77;;;3.28;;
60472;SDS011;46318;52.716;6.444;2023-04-25T05:22:46;8.90;;;3.38;;
60472;SDS011;46318;52.716;6.444;2023-04-25T05:25:12;11.05;;;3.53;;
60472;SDS011;46318;52.716;6.444;2023-04-25T05:27:38;11.00;;;3.60;;
60472;SDS011;46318;52.716;6.444;2023-04-25T05:30:04;12.77;;;3.70;;
60472;SDS011;46318;52.716;6.444;2023-04-25T05:32:30;11.65;;;3.45;;
60472;SDS011;46318;52.716;6.444;2023-04-25T05:34:56;11.38;;;3.45;;
60472;SDS011;46318;52.716;6.444;2023-04-25T05:37:22;9.02;;;3.40;;
60472;SDS011;46318;52.716;6.444;2023-04-25T05:39:48;9.02;;;3.13;;
60472;SDS011;46318;52.716;6.444;2023-04-25T05:42:14;14.82;;;3.45;;
60472;SDS011;46318;52.716;6.444;2023-04-25T05:44:39;12.35;;;3.17;;
60472;SDS011;46318;52.716;6.444;2023-04-25T05:47:05;10.68;;;3.00;;
60472;SDS011;46318;52.716;6.444;2023-04-25T05:49:31;14.52;;;3.13;;
60472;SDS011;46318;52.716;6.444;2023-04-25T05:51:59;8.18;;;3.03;;
60472;SDS011;46318;52.716;6.444;2023-04-25T05:54:25;11.43;;;3.08;;
60472;SDS011;46318;52.716;6.444;2023-04-25T05:56:51;8.80;;;2.95;;
60472;SDS011;46318;52.716;6.444;2023-04-25T05:59:17;11.27;;;3.63;;
60472;SDS011;46318;52.716;6.444;2023-04-25T06:01:45;7.57;;;2.88;;
60472;SDS011;46318;52.716;6.444;2023-04-25T06:04:12;12.63;;;3.28;;
60472;SDS011;46318;52.716;6.444;2023-04-25T06:06:37;8.52;;;2.47;;
60472;SDS011;46318;52.716;6.444;2023-04-25T06:09:03;8.45;;;2.78;;
60472;SDS011;46318;52.716;6.444;2023-04-25T06:11:29;10.80;;;3.70;;
60472;SDS011;46318;52.716;6.444;2023-04-25T06:13:55;10.90;;;2.70;;
60472;SDS011;46318;52.716;6.444;2023-04-25T06:16:21;10.02;;;2.95;;
60472;SDS011;46318;52.716;6.444;2023-04-25T06:18:47;11.02;;;3.15;;
60472;SDS011;46318;52.716;6.444;2023-04-25T06:21:13;11.00;;;2.53;;
60472;SDS011;46318;52.716;6.444;2023-04-25T06:23:38;10.95;;;2.90;;
60472;SDS011;46318;52.716;6.444;2023-04-25T06:26:04;8.45;;;2.20;;
60472;SDS011;46318;52.716;6.444;2023-04-25T06:28:30;5.68;;;2.80;;
60472;SDS011;46318;52.716;6.444;2023-04-25T06:30:56;9.77;;;2.75;;
60472;SDS011;46318;52.716;6.444;2023-04-25T06:33:22;9.82;;;2.53;;
60472;SDS011;46318;52.716;6.444;2023-04-25T06:35:49;9.52;;;2.80;;
60472;SDS011;46318;52.716;6.444;2023-04-25T06:38:15;12.93;;;2.88;;
60472;SDS011;46318;52.716;6.444;2023-04-25T06:40:41;6.30;;;2.28;;
60472;SDS011;46318;52.716;6.444;2023-04-25T06:43:07;9.95;;;2.20;;
60472;SDS011;46318;52.716;6.444;2023-04-25T06:45:33;9.73;;;2.30;;
60472;SDS011;46318;52.716;6.444;2023-04-25T06:47:58;9.55;;;1.98;;
60472;SDS011;46318;52.716;6.444;2023-04-25T06:50:25;8.57;;;2.22;;
60472;SDS011;46318;52.716;6.444;2023-04-25T06:52:51;8.82;;;2.22;;
60472;SDS011;46318;52.716;6.444;2023-04-25T06:55:17;7.00;;;2.20;;
60472;SDS011;46318;52.716;6.444;2023-04-25T06:57:43;8.65;;;1.88;;
60472;SDS011;46318;52.716;6.444;2023-04-25T07:00:09;7.10;;;2.03;;
60472;SDS011;46318;52.716;6.444;2023-04-25T07:02:36;6.15;;;2.15;;
60472;SDS011;46318;52.716;6.444;2023-04-25T07:05:02;8.73;;;2.28;;
60472;SDS011;46318;52.716;6.444;2023-04-25T07:07:32;8.15;;;2.42;;
60472;SDS011;46318;52.716;6.444;2023-04-25T07:09:59;6.18;;;2.10;;
60472;SDS011;46318;52.716;6.444;2023-04-25T07:12:25;10.93;;;2.10;;
60472;SDS011;46318;52.716;6.444;2023-04-25T07:14:51;7.07;;;2.03;;
60472;SDS011;46318;52.716;6.444;2023-04-25T07:17:17;7.88;;;2.15;;
60472;SDS011;46318;52.716;6.444;2023-04-25T07:19:43;6.15;;;2.20;;
60472;SDS011;46318;52.716;6.444;2023-04-25T07:22:08;8.52;;;2.63;;
60472;SDS011;46318;52.716;6.444;2023-04-25T07:24:34;7.75;;;1.98;;
60472;SDS011;46318;52.716;6.444;2023-04-25T07:27:00;11.35;;;2.83;;
60472;SDS011;46318;52.716;6.444;2023-04-25T07:29:27;9.65;;;1.75;;
60472;SDS011;46318;52.716;6.444;2023-04-25T07:31:53;5.57;;;1.63;;
60472;SDS011;46318;52.716;6.444;2023-04-25T07:34:19;8.32;;;1.90;;
60472;SDS011;46318;52.716;6.444;2023-04-25T07:36:45;10.20;;;1.80;;
60472;SDS011;46318;52.716;6.444;2023-04-25T07:39:11;7.25;;;2.03;;
60472;SDS011;46318;52.716;6.444;2023-04-25T07:41:37;6.60;;;1.80;;
60472;SDS011;46318;52.716;6.444;2023-04-25T07:44:03;8.75;;;2.28;;
60472;SDS011;46318;52.716;6.444;2023-04-25T07:46:29;9.63;;;2.22;;
60472;SDS011;46318;52.716;6.444;2023-04-25T07:48:55;8.70;;;2.25;;
60472;SDS011;46318;52.716;6.444;2023-04-25T07:51:20;8.65;;;1.90;;
60472;SDS011;46318;52.716;6.444;2023-04-25T07:53:47;9.32;;;2.03;;
60472;SDS011;46318;52.716;6.444;2023-04-25T07:56:13;9.68;;;1.75;;
60472;SDS011;46318;52.716;6.444;2023-04-25T07:58:38;6.97;;;1.40;;
60472;SDS011;46318;52.716;6.444;2023-04-25T08:01:04;5.10;;;1.80;;
60472;SDS011;46318;52.716;6.444;2023-04-25T08:03:30;5.10;;;1.67;;
60472;SDS011;46318;52.716;6.444;2023-04-25T08:05:56;9.73;;;2.47;;
60472;SDS011;46318;52.716;6.444;2023-04-25T08:08:22;8.25;;;2.22;;
60472;SDS011;46318;52.716;6.444;2023-04-25T08:10:47;6.55;;;2.30;;
60472;SDS011;46318;52.716;6.444;2023-04-25T08:13:13;7.35;;;1.75;;
60472;SDS011;46318;52.716;6.444;2023-04-25T08:15:39;9.30;;;2.97;;
60472;SDS011;46318;52.716;6.444;2023-04-25T08:18:05;7.82;;;2.15;;
60472;SDS011;46318;52.716;6.444;2023-04-25T08:20:31;6.95;;;1.85;;
60472;SDS011;46318;52.716;6.444;2023-04-25T08:22:57;7.30;;;1.92;;
60472;SDS011;46318;52.716;6.444;2023-04-25T08:25:23;4.10;;;1.58;;
60472;SDS011;46318;52.716;6.444;2023-04-25T08:27:49;3.65;;;1.30;;
60472;SDS011;46318;52.716;6.444;2023-04-25T08:30:14;4.43;;;1.17;;
60472;SDS011;46318;52.716;6.444;2023-04-25T08:32:40;3.00;;;1.05;;
60472;SDS011;46318;52.716;6.444;2023-04-25T08:35:06;2.88;;;1.20;;
60472;SDS011;46318;52.716;6.444;2023-04-25T08:37:33;3.30;;;1.15;;
60472;SDS011;46318;52.716;6.444;2023-04-25T08:39:59;4.55;;;1.13;;
60472;SDS011;46318;52.716;6.444;2023-04-25T08:42:24;1.73;;;0.90;;
60472;SDS011;46318;52.716;6.444;2023-04-25T08:44:53;2.15;;;0.90;;
60472;SDS011;46318;52.716;6.444;2023-04-25T08:47:21;2.72;;;1.00;;
60472;SDS011;46318;52.716;6.444;2023-04-25T08:49:47;3.05;;;1.02;;
60472;SDS011;46318;52.716;6.444;2023-04-25T08:52:14;2.83;;;1.00;;
60472;SDS011;46318;52.716;6.444;2023-04-25T08:54:47;4.72;;;1.08;;
60472;SDS011;46318;52.716;6.444;2023-04-25T08:57:14;3.58;;;0.98;;
60472;SDS011;46318;52.716;6.444;2023-04-25T08:59:40;3.90;;;1.25;;
60472;SDS011;46318;52.716;6.444;2023-04-25T09:02:10;3.60;;;1.08;;
60472;SDS011;46318;52.716;6.444;2023-04-25T09:04:42;3.00;;;1.63;;
60472;SDS011;46318;52.716;6.444;2023-04-25T09:07:09;3.35;;;1.45;;
60472;SDS011;46318;52.716;6.444;2023-04-25T09:09:35;4.80;;;1.40;;
60472;SDS011;46318;52.716;6.444;2023-04-25T09:12:01;3.58;;;1.38;;
60472;SDS011;46318;52.716;6.444;2023-04-25T09:14:27;6.28;;;1.48;;
60472;SDS011;46318;52.716;6.444;2023-04-25T09:21:55;6.90;;;1.63;;
60472;SDS011;46318;52.716;6.444;2023-04-25T09:24:39;6.32;;;1.75;;
60472;SDS011;46318;52.716;6.444;2023-04-25T09:27:09;6.75;;;1.70;;
60472;SDS011;46318;52.716;6.444;2023-04-25T09:29:43;8.88;;;1.63;;
60472;SDS011;46318;52.716;6.444;2023-04-25T09:34:50;4.00;;;1.40;;
60472;SDS011;46318;52.716;6.444;2023-04-25T09:37:22;5.43;;;1.75;;
60472;SDS011;46318;52.716;6.444;2023-04-25T09:39:52;4.68;;;1.30;;
60472;SDS011;46318;52.716;6.444;2023-04-25T09:42:24;5.25;;;2.00;;
60472;SDS011;46318;52.716;6.444;2023-04-25T09:44:54;7.25;;;1.90;;
60472;SDS011;46318;52.716;6.444;2023-04-25T09:47:22;4.25;;;1.75;;
60472;SDS011;46318;52.716;6.444;2023-04-25T09:49:50;5.53;;;1.55;;
60472;SDS011;46318;52.716;6.444;2023-04-25T09:52:18;7.70;;;2.08;;
60472;SDS011;46318;52.716;6.444;2023-04-25T09:54:47;6.18;;;1.52;;
60472;SDS011;46318;52.716;6.444;2023-04-25T09:57:18;9.55;;;2.22;;
60472;SDS011;46318;52.716;6.444;2023-04-25T09:59:49;6.38;;;1.77;;
60472;SDS011;46318;52.716;6.444;2023-04-25T10:02:23;8.95;;;2.10;;
60472;SDS011;46318;52.716;6.444;2023-04-25T10:04:52;6.35;;;1.60;;
60472;SDS011;46318;52.716;6.444;2023-04-25T10:07:25;7.22;;;2.28;;
60472;SDS011;46318;52.716;6.444;2023-04-25T10:09:59;4.63;;;1.50;;
60472;SDS011;46318;52.716;6.444;2023-04-25T10:12:28;6.70;;;1.45;;
60472;SDS011;46318;52.716;6.444;2023-04-25T10:14:56;5.18;;;1.58;;
60472;SDS011;46318;52.716;6.444;2023-04-25T10:17:23;8.77;;;1.70;;
60472;SDS011;46318;52.716;6.444;2023-04-25T10:19:52;6.10;;;1.83;;
60472;SDS011;46318;52.716;6.444;2023-04-25T10:22:29;5.35;;;1.90;;
60472;SDS011;46318;52.716;6.444;2023-04-25T10:25:02;8.10;;;1.70;;
60472;SDS011;46318;52.716;6.444;2023-04-25T10:27:30;8.13;;;1.55;;
60472;SDS011;46318;52.716;6.444;2023-04-25T10:30:00;6.40;;;2.10;;
60472;SDS011;46318;52.716;6.444;2023-04-25T10:32:32;6.05;;;1.63;;
60472;SDS011;46318;52.716;6.444;2023-04-25T10:35:09;5.00;;;1.25;;
60472;SDS011;46318;52.716;6.444;2023-04-25T10:37:57;8.70;;;1.85;;
60472;SDS011;46318;52.716;6.444;2023-04-25T10:40:30;4.20;;;1.45;;
60472;SDS011;46318;52.716;6.444;2023-04-25T10:43:44;4.68;;;1.40;;
60472;SDS011;46318;52.716;6.444;2023-04-25T10:46:00;7.97;;;1.90;;
60472;SDS011;46318;52.716;6.444;2023-04-25T10:48:30;10.00;;;2.50;;
60472;SDS011;46318;52.716;6.444;2023-04-25T10:51:09;4.13;;;1.48;;
60472;SDS011;46318;52.716;6.444;2023-04-25T10:53:36;8.73;;;1.67;;
60472;SDS011;46318;52.716;6.444;2023-04-25T10:58:48;6.22;;;1.50;;
60472;SDS011;46318;52.716;6.444;2023-04-25T11:01:15;7.85;;;1.90;;
60472;SDS011;46318;52.716;6.444;2023-04-25T11:03:56;4.10;;;1.58;;
60472;SDS011;46318;52.716;6.444;2023-04-25T11:06:27;5.75;;;1.77;;
60472;SDS011;46318;52.716;6.444;2023-04-25T11:09:26;5.30;;;1.48;;
60472;SDS011;46318;52.716;6.444;2023-04-25T11:11:56;7.72;;;2.15;;
60472;SDS011;46318;52.716;6.444;2023-04-25T11:14:23;5.55;;;1.48;;
60472;SDS011;46318;52.716;6.444;2023-04-25T11:16:53;5.70;;;1.20;;
60472;SDS011;46318;52.716;6.444;2023-04-25T11:19:21;6.32;;;1.70;;
60472;SDS011;46318;52.716;6.444;2023-04-25T11:21:48;6.63;;;1.50;;
60472;SDS011;46318;52.716;6.444;2023-04-25T11:24:15;5.30;;;1.52;;
60472;SDS011;46318;52.716;6.444;2023-04-25T11:26:42;5.03;;;1.33;;
60472;SDS011;46318;52.716;6.444;2023-04-25T11:29:12;6.15;;;1.63;;
60472;SDS011;46318;52.716;6.444;2023-04-25T11:31:38;7.93;;;1.88;;
60472;SDS011;46318;52.716;6.444;2023-04-25T11:34:08;6.15;;;1.30;;
60472;SDS011;46318;52.716;6.444;2023-04-25T11:36:34;4.82;;;1.55;;
60472;SDS011;46318;52.716;6.444;2023-04-25T11:39:04;5.15;;;1.95;;
60472;SDS011;46318;52.716;6.444;2023-04-25T11:41:31;4.60;;;2.10;;
60472;SDS011;46318;52.716;6.444;2023-04-25T11:43:57;6.13;;;1.67;;
60472;SDS011;46318;52.716;6.444;2023-04-25T11:46:22;7.97;;;1.70;;
60472;SDS011;46318;52.716;6.444;2023-04-25T11:48:48;4.38;;;1.60;;
60472;SDS011;46318;52.716;6.444;2023-04-25T11:51:15;4.97;;;1.52;;
60472;SDS011;46318;52.716;6.444;2023-04-25T11:53:41;6.72;;;1.35;;
60472;SDS011;46318;52.716;6.444;2023-04-25T11:56:10;3.45;;;1.50;;
60472;SDS011;46318;52.716;6.444;2023-04-25T12:01:34;7.03;;;1.63;;
60472;SDS011;46318;52.716;6.444;2023-04-25T12:04:13;7.22;;;1.40;;
60472;SDS011;46318;52.716;6.444;2023-04-25T12:06:51;5.03;;;1.40;;
60472;SDS011;46318;52.716;6.444;2023-04-25T12:09:20;4.13;;;1.20;;
60472;SDS011;46318;52.716;6.444;2023-04-25T12:11:54;4.97;;;1.30;;
60472;SDS011;46318;52.716;6.444;2023-04-25T12:14:26;5.45;;;1.45;;
60472;SDS011;46318;52.716;6.444;2023-04-25T12:16:55;5.10;;;1.50;;
60472;SDS011;46318;52.716;6.444;2023-04-25T12:19:23;5.22;;;1.45;;
60472;SDS011;46318;52.716;6.444;2023-04-25T12:21:51;7.78;;;1.88;;
60472;SDS011;46318;52.716;6.444;2023-04-25T12:24:24;7.80;;;1.60;;
60472;SDS011;46318;52.716;6.444;2023-04-25T12:27:10;6.03;;;1.27;;
60472;SDS011;46318;52.716;6.444;2023-04-25T12:29:49;7.10;;;1.65;;
60472;SDS011;46318;52.716;6.444;2023-04-25T12:32:20;5.93;;;1.42;;
60472;SDS011;46318;52.716;6.444;2023-04-25T12:34:46;4.70;;;1.70;;
60472;SDS011;46318;52.716;6.444;2023-04-25T12:37:12;5.85;;;1.60;;
60472;SDS011;46318;52.716;6.444;2023-04-25T12:39:39;6.22;;;1.75;;
60472;SDS011;46318;52.716;6.444;2023-04-25T12:42:05;8.45;;;1.52;;
60472;SDS011;46318;52.716;6.444;2023-04-25T12:44:33;4.57;;;1.70;;
60472;SDS011;46318;52.716;6.444;2023-04-25T12:46:59;5.82;;;1.40;;
60472;SDS011;46318;52.716;6.444;2023-04-25T12:49:26;6.72;;;1.92;;
60472;SDS011;46318;52.716;6.444;2023-04-25T12:51:51;6.85;;;1.42;;
60472;SDS011;46318;52.716;6.444;2023-04-25T12:54:17;4.55;;;1.25;;
60472;SDS011;46318;52.716;6.444;2023-04-25T12:56:43;2.75;;;1.20;;
60472;SDS011;46318;52.716;6.444;2023-04-25T12:59:09;6.97;;;1.63;;
60472;SDS011;46318;52.716;6.444;2023-04-25T13:01:35;5.07;;;1.30;;
60472;SDS011;46318;52.716;6.444;2023-04-25T13:04:01;3.35;;;1.30;;
60472;SDS011;46318;52.716;6.444;2023-04-25T13:06:27;6.60;;;1.55;;
60472;SDS011;46318;52.716;6.444;2023-04-25T13:08:54;4.93;;;1.48;;
60472;SDS011;46318;52.716;6.444;2023-04-25T13:11:20;5.63;;;1.85;;
60472;SDS011;46318;52.716;6.444;2023-04-25T13:13:46;5.50;;;1.55;;
60472;SDS011;46318;52.716;6.444;2023-04-25T13:16:12;6.20;;;1.50;;
60472;SDS011;46318;52.716;6.444;2023-04-25T13:18:41;4.25;;;1.88;;
60472;SDS011;46318;52.716;6.444;2023-04-25T13:21:08;4.75;;;1.60;;
60472;SDS011;46318;52.716;6.444;2023-04-25T13:23:38;4.85;;;1.70;;
60472;SDS011;46318;52.716;6.444;2023-04-25T13:26:04;4.50;;;1.75;;
60472;SDS011;46318;52.716;6.444;2023-04-25T13:28:30;6.53;;;1.40;;
60472;SDS011;46318;52.716;6.444;2023-04-25T13:30:56;4.75;;;1.60;;
60472;SDS011;46318;52.716;6.444;2023-04-25T13:33:23;3.63;;;1.95;;
60472;SDS011;46318;52.716;6.444;2023-04-25T13:35:49;4.50;;;2.28;;
60472;SDS011;46318;52.716;6.444;2023-04-25T13:38:25;3.03;;;1.65;;
60472;SDS011;46318;52.716;6.444;2023-04-25T13:40:51;5.18;;;1.85;;
60472;SDS011;46318;52.716;6.444;2023-04-25T13:43:20;7.03;;;1.60;;
60472;SDS011;46318;52.716;6.444;2023-04-25T13:45:47;6.35;;;1.70;;
60472;SDS011;46318;52.716;6.444;2023-04-25T13:48:14;4.80;;;2.00;;
60472;SDS011;46318;52.716;6.444;2023-04-25T13:50:40;6.43;;;1.70;;
60472;SDS011;46318;52.716;6.444;2023-04-25T13:53:06;6.90;;;2.33;;
60472;SDS011;46318;52.716;6.444;2023-04-25T13:55:33;6.55;;;2.13;;
60472;SDS011;46318;52.716;6.444;2023-04-25T13:58:02;6.35;;;1.80;;
60472;SDS011;46318;52.716;6.444;2023-04-25T14:00:32;5.27;;;1.80;;
60472;SDS011;46318;52.716;6.444;2023-04-25T14:03:03;5.80;;;1.45;;
60472;SDS011;46318;52.716;6.444;2023-04-25T14:05:32;4.32;;;1.70;;
60472;SDS011;46318;52.716;6.444;2023-04-25T14:08:03;7.65;;;2.08;;
60472;SDS011;46318;52.716;6.444;2023-04-25T14:10:33;4.45;;;1.70;;
60472;SDS011;46318;52.716;6.444;2023-04-25T14:13:00;4.88;;;1.40;;
60472;SDS011;46318;52.716;6.444;2023-04-25T14:15:28;5.47;;;1.60;;
60472;SDS011;46318;52.716;6.444;2023-04-25T14:17:58;3.40;;;1.20;;
60472;SDS011;46318;52.716;6.444;2023-04-25T14:20:24;4.03;;;1.30;;
60472;SDS011;46318;52.716;6.444;2023-04-25T14:22:51;3.78;;;1.30;;
60472;SDS011;46318;52.716;6.444;2023-04-25T14:25:19;5.80;;;1.67;;
60472;SDS011;46318;52.716;6.444;2023-04-25T14:27:45;4.30;;;1.65;;
60472;SDS011;46318;52.716;6.444;2023-04-25T14:30:15;6.63;;;1.90;;
60472;SDS011;46318;52.716;6.444;2023-04-25T14:32:42;8.43;;;1.88;;
60472;SDS011;46318;52.716;6.444;2023-04-25T14:35:09;6.18;;;1.30;;
60472;SDS011;46318;52.716;6.444;2023-04-25T14:37:35;3.13;;;1.35;;
60472;SDS011;46318;52.716;6.444;2023-04-25T14:40:01;6.20;;;1.73;;
60472;SDS011;46318;52.716;6.444;2023-04-25T14:42:27;4.38;;;1.30;;
60472;SDS011;46318;52.716;6.444;2023-04-25T14:44:53;5.57;;;1.60;;
60472;SDS011;46318;52.716;6.444;2023-04-25T14:47:18;5.18;;;1.40;;
60472;SDS011;46318;52.716;6.444;2023-04-25T14:49:44;3.42;;;1.40;;
60472;SDS011;46318;52.716;6.444;2023-04-25T14:52:16;5.13;;;1.73;;
60472;SDS011;46318;52.716;6.444;2023-04-25T14:54:42;4.55;;;1.48;;
60472;SDS011;46318;52.716;6.444;2023-04-25T14:57:08;5.35;;;1.77;;